Terminal Aerodrome Forecast
Issued by NWS

Home | Current Version | Previous Version | Text Only | Print | Product List | Glossary On
Versions: 1 2 3 4 5 6 7 8 9 10 11 12 13 14 15 16
000
FTAK31 PAFA 191138
TAFAOM
TAF
PAOM 191138Z 1912/2012 31007KT P6SM VCSH SCT040 OVC090
     FM191600 28007KT 6SM -SHRA BR BKN040 OVC090
     FM200300 34008KT P6SM BKN100=

USA.gov is the U.S. government's official web portal to all federal, state and local government web resources and services.